Time;durP1;ratioP1;P1;durP2;ratioP2;P2;SDS_P1;SDS_P2;PMS_P1;PMS_P2;Temp;Humidity;BMP_temperature;BMP_pressure;BME280_temperature;BME280_humidity;BME280_pressure;Samples;Min_cycle;Max_cycle;Signal;HPM_P1;HPM_P2
2024/03/27 00:00:40;;;;;;;9.80;9.23;;;10.80;99.90;;;;;;5019072;28;20527;-45
2024/03/27 00:03:06;;;;;;;9.90;9.40;;;10.80;99.90;;;;;;5017614;28;20185;-40
2024/03/27 00:05:34;;;;;;;10.07;9.57;;;10.80;99.90;;;;;;5018573;28;20183;-50
2024/03/27 00:07:59;;;;;;;9.90;9.40;;;10.90;99.90;;;;;;5019316;28;20614;-49
2024/03/27 00:10:25;;;;;;;10.13;9.63;;;10.90;99.90;;;;;;5017237;28;20475;-48
2024/03/27 00:12:51;;;;;;;10.40;9.90;;;10.90;99.90;;;;;;5019246;28;20175;-50
2024/03/27 00:15:17;;;;;;;10.00;9.50;;;10.80;99.90;;;;;;5019141;28;20526;-52
2024/03/27 00:17:43;;;;;;;10.20;9.60;;;10.80;99.90;;;;;;5020289;28;20238;-49
2024/03/27 00:20:10;;;;;;;10.10;9.60;;;10.80;99.90;;;;;;5021214;28;20577;-47
2024/03/27 00:22:35;;;;;;;9.83;9.33;;;10.80;99.90;;;;;;5023009;28;20500;-50
2024/03/27 00:25:01;;;;;;;10.30;9.80;;;10.80;99.90;;;;;;5020301;28;20589;-50
2024/03/27 00:27:27;;;;;;;10.20;9.60;;;10.80;99.90;;;;;;5023022;28;20197;-46
2024/03/27 00:29:52;;;;;;;10.30;9.80;;;10.80;99.90;;;;;;5020848;28;20254;-42
2024/03/27 00:32:18;;;;;;;10.60;10.00;;;10.80;99.90;;;;;;5022357;28;20260;-40
2024/03/27 00:34:44;;;;;;;10.10;9.50;;;10.80;99.90;;;;;;5021115;28;20257;-43
2024/03/27 00:37:10;;;;;;;10.37;9.87;;;10.90;99.90;;;;;;5022688;28;20198;-42
2024/03/27 00:39:35;;;;;;;10.27;9.70;;;10.80;99.90;;;;;;5021390;28;20211;-40
2024/03/27 00:42:01;;;;;;;10.10;9.60;;;10.80;99.90;;;;;;5021840;28;20930;-42
2024/03/27 00:44:27;;;;;;;10.23;9.57;;;10.80;99.90;;;;;;5021782;28;20182;-38
2024/03/27 00:46:52;;;;;;;10.00;9.40;;;10.80;99.90;;;;;;5021616;28;20187;-41
2024/03/27 00:49:18;;;;;;;10.30;9.80;;;10.80;99.90;;;;;;5021749;28;20661;-44
2024/03/27 00:51:43;;;;;;;10.30;9.80;;;10.80;99.90;;;;;;5022273;28;20239;-41
2024/03/27 00:54:10;;;;;;;11.30;10.57;;;10.70;99.90;;;;;;5021546;28;20190;-41
2024/03/27 00:56:37;;;;;;;10.47;9.87;;;10.80;99.90;;;;;;5021740;28;20209;-44
2024/03/27 00:59:03;;;;;;;10.40;9.90;;;10.70;99.90;;;;;;5020925;28;20993;-39
2024/03/27 01:01:28;;;;;;;9.90;9.40;;;10.80;99.90;;;;;;5021423;28;20436;-43
2024/03/27 01:03:55;;;;;;;9.90;9.40;;;10.80;99.90;;;;;;5021982;28;20270;-41
2024/03/27 01:06:20;;;;;;;10.30;9.80;;;10.70;99.90;;;;;;5020578;28;20217;-44
2024/03/27 01:08:46;;;;;;;10.17;9.50;;;10.80;99.90;;;;;;5020570;28;20962;-44
2024/03/27 01:11:11;;;;;;;10.27;9.57;;;10.80;99.90;;;;;;5019930;28;20183;-39
2024/03/27 01:13:37;;;;;;;10.50;9.90;;;10.80;99.90;;;;;;5021708;28;20262;-39
2024/03/27 01:16:03;;;;;;;10.10;9.60;;;10.80;99.90;;;;;;5020502;28;20601;-45
2024/03/27 01:18:29;;;;;;;10.30;9.80;;;10.70;99.90;;;;;;5021061;28;20619;-45
2024/03/27 01:20:54;;;;;;;10.10;9.60;;;10.70;99.90;;;;;;5021641;28;20260;-40
2024/03/27 01:23:20;;;;;;;10.10;9.60;;;10.70;99.90;;;;;;5020528;28;20516;-41
2024/03/27 01:25:45;;;;;;;9.93;9.43;;;10.60;99.90;;;;;;5020699;28;20194;-38
2024/03/27 01:28:11;;;;;;;10.17;9.63;;;10.60;99.90;;;;;;5021714;28;20472;-43
2024/03/27 01:30:36;;;;;;;10.33;9.83;;;10.60;99.90;;;;;;5022070;28;20202;-41
2024/03/27 01:33:02;;;;;;;10.10;9.60;;;10.60;99.90;;;;;;5022329;28;20186;-38
2024/03/27 01:35:28;;;;;;;10.10;9.50;;;10.50;99.90;;;;;;5021720;28;20198;-42
2024/03/27 01:37:53;;;;;;;10.53;9.93;;;10.50;99.90;;;;;;5023403;28;20220;-39
2024/03/27 01:40:20;;;;;;;10.27;9.67;;;10.50;99.90;;;;;;5021217;28;20782;-45
2024/03/27 01:42:45;;;;;;;10.20;9.60;;;10.50;99.90;;;;;;5022730;28;20195;-41
2024/03/27 01:45:13;;;;;;;10.30;9.70;;;10.40;99.90;;;;;;5021092;28;20444;-45
2024/03/27 01:47:41;;;;;;;10.50;9.70;;;10.40;99.90;;;;;;5022520;28;20616;-41
2024/03/27 01:50:13;;;;;;;10.77;10.17;;;10.40;99.90;;;;;;5019152;28;20449;-41
2024/03/27 01:52:40;;;;;;;10.23;9.73;;;10.40;99.90;;;;;;5020875;28;20468;-40
2024/03/27 01:55:06;;;;;;;10.53;9.93;;;10.40;99.90;;;;;;5021251;28;20453;-40
2024/03/27 01:57:34;;;;;;;10.53;10.00;;;10.40;99.90;;;;;;5022771;28;20434;-42
2024/03/27 02:00:00;;;;;;;10.40;9.90;;;10.30;99.90;;;;;;5021562;28;20461;-42
2024/03/27 02:02:25;;;;;;;10.00;9.50;;;10.30;99.90;;;;;;5022386;28;20428;-42
2024/03/27 02:04:51;;;;;;;10.40;9.90;;;10.40;99.90;;;;;;5021767;28;20233;-40
2024/03/27 02:07:17;;;;;;;10.70;10.10;;;10.40;99.90;;;;;;5019951;28;20190;-38
2024/03/27 02:09:42;;;;;;;10.80;10.00;;;10.40;99.90;;;;;;5022649;28;20192;-41
2024/03/27 02:12:08;;;;;;;10.07;9.57;;;10.40;99.90;;;;;;5020607;28;20198;-39
2024/03/27 02:14:34;;;;;;;10.20;9.70;;;10.40;99.90;;;;;;5022282;28;20186;-44
2024/03/27 02:16:59;;;;;;;10.90;10.30;;;10.40;99.90;;;;;;5022114;28;20251;-45
2024/03/27 02:19:25;;;;;;;10.37;9.87;;;10.30;99.90;;;;;;5021746;28;20221;-39
2024/03/27 02:21:51;;;;;;;10.40;9.90;;;10.30;99.90;;;;;;5021224;28;20182;-41
2024/03/27 02:24:26;;;;;;;10.10;9.60;;;10.30;99.90;;;;;;5021255;28;20186;-44
2024/03/27 02:26:52;;;;;;;9.90;9.50;;;10.20;99.90;;;;;;5020725;28;20196;-46
2024/03/27 02:29:17;;;;;;;11.07;10.33;;;10.20;99.90;;;;;;5020864;28;21022;-39
2024/03/27 02:31:43;;;;;;;11.07;10.27;;;10.20;99.90;;;;;;5020407;28;20202;-40
2024/03/27 02:34:08;;;;;;;10.43;9.80;;;10.10;99.90;;;;;;5018634;28;20301;-44
2024/03/27 02:36:34;;;;;;;10.53;9.83;;;10.10;99.90;;;;;;5019968;28;20198;-39
2024/03/27 02:38:59;;;;;;;10.30;9.80;;;10.10;99.90;;;;;;5018013;28;20734;-38
2024/03/27 02:41:25;;;;;;;10.67;10.17;;;10.00;99.90;;;;;;5017925;28;20185;-39
2024/03/27 02:43:51;;;;;;;10.43;9.93;;;10.00;99.90;;;;;;5020624;28;20202;-39
2024/03/27 02:46:16;;;;;;;11.70;10.80;;;10.00;99.90;;;;;;5020002;28;20192;-40
2024/03/27 02:48:42;;;;;;;10.00;9.60;;;10.00;99.90;;;;;;5020015;28;20320;-40
2024/03/27 02:51:07;;;;;;;10.67;10.07;;;9.90;99.90;;;;;;5019059;28;20182;-42
2024/03/27 02:53:33;;;;;;;10.17;9.67;;;10.00;99.90;;;;;;5019234;28;20194;-42
2024/03/27 02:55:59;;;;;;;10.23;9.73;;;9.90;99.90;;;;;;5018770;28;20192;-40
2024/03/27 02:58:24;;;;;;;10.60;10.10;;;9.90;99.90;;;;;;5018248;28;20687;-42
2024/03/27 03:00:50;;;;;;;9.90;9.40;;;9.90;99.90;;;;;;5018483;28;20232;-38
2024/03/27 03:03:15;;;;;;;10.80;10.20;;;9.90;99.90;;;;;;5015431;28;20703;-41
2024/03/27 03:05:41;;;;;;;10.30;9.70;;;9.80;99.90;;;;;;5020087;28;20433;-43
2024/03/27 03:08:07;;;;;;;10.73;10.13;;;9.80;99.90;;;;;;5019020;28;20191;-39
2024/03/27 03:10:33;;;;;;;10.43;9.83;;;9.80;99.90;;;;;;5016771;28;20508;-39
2024/03/27 03:12:59;;;;;;;10.77;10.17;;;9.70;99.90;;;;;;5018571;28;20429;-40
2024/03/27 03:15:24;;;;;;;10.63;10.10;;;9.80;99.90;;;;;;5019534;28;20183;-39
2024/03/27 03:17:50;;;;;;;11.03;10.23;;;9.70;99.90;;;;;;5017482;28;20315;-41
2024/03/27 03:20:16;;;;;;;10.83;10.23;;;9.70;99.90;;;;;;5019388;28;20276;-42
2024/03/27 03:22:42;;;;;;;10.83;10.13;;;9.70;99.90;;;;;;5018224;28;20476;-39
2024/03/27 03:25:08;;;;;;;10.90;10.30;;;9.70;99.90;;;;;;5020001;28;20413;-44
2024/03/27 03:27:33;;;;;;;10.73;10.17;;;9.70;99.90;;;;;;5018301;28;20190;-41
2024/03/27 03:29:59;;;;;;;10.20;9.70;;;9.60;99.90;;;;;;5019526;28;20190;-39
2024/03/27 03:32:25;;;;;;;10.80;9.90;;;9.60;99.90;;;;;;5018113;28;20746;-41
2024/03/27 03:34:50;;;;;;;10.30;9.70;;;9.60;99.90;;;;;;5019423;28;21322;-40
2024/03/27 03:37:17;;;;;;;10.00;9.40;;;9.60;99.90;;;;;;5018392;28;20568;-41
2024/03/27 03:39:42;;;;;;;10.43;9.87;;;9.60;99.90;;;;;;5019092;28;20606;-42
2024/03/27 03:42:08;;;;;;;10.57;9.90;;;9.60;99.90;;;;;;5019915;28;20417;-46
2024/03/27 03:44:35;;;;;;;10.10;9.60;;;9.60;99.90;;;;;;5018669;28;20192;-43
2024/03/27 03:47:00;;;;;;;10.30;9.80;;;9.60;99.90;;;;;;5018653;28;20404;-44
2024/03/27 03:49:26;;;;;;;10.80;10.20;;;9.60;99.90;;;;;;5017180;28;20433;-40
2024/03/27 03:51:51;;;;;;;10.10;9.60;;;9.60;99.90;;;;;;5020894;28;20190;-41
2024/03/27 03:54:17;;;;;;;10.27;9.77;;;9.60;99.90;;;;;;5023458;28;20194;-42
2024/03/27 03:56:43;;;;;;;11.43;10.53;;;9.60;99.90;;;;;;5023555;28;20369;-40
2024/03/27 03:59:08;;;;;;;10.53;10.03;;;9.50;99.90;;;;;;5023108;28;20198;-41
2024/03/27 04:01:34;;;;;;;10.60;10.00;;;9.50;99.90;;;;;;5021699;28;20660;-43
2024/03/27 04:04:00;;;;;;;11.67;10.70;;;9.50;99.90;;;;;;5022161;28;20225;-42
2024/03/27 04:06:27;;;;;;;10.80;10.20;;;9.50;99.90;;;;;;5023044;28;20421;-50
2024/03/27 04:08:53;;;;;;;10.40;9.90;;;9.40;99.90;;;;;;5022185;28;20351;-47
2024/03/27 04:11:18;;;;;;;10.10;9.60;;;9.40;99.90;;;;;;5019565;28;20449;-50
2024/03/27 04:13:44;;;;;;;10.30;9.70;;;9.40;99.90;;;;;;5023092;28;20433;-50
2024/03/27 04:16:09;;;;;;;10.20;9.50;;;9.40;99.90;;;;;;5021077;28;20560;-49
2024/03/27 04:18:35;;;;;;;11.03;10.43;;;9.40;99.90;;;;;;5022802;28;20245;-49
2024/03/27 04:21:05;;;;;;;10.33;9.83;;;9.40;99.90;;;;;;5022311;28;20271;-48
2024/03/27 04:23:30;;;;;;;11.00;10.40;;;9.50;99.90;;;;;;5021290;28;20529;-49
2024/03/27 04:25:56;;;;;;;10.63;10.13;;;9.40;99.90;;;;;;5022504;28;20432;-47
2024/03/27 04:28:21;;;;;;;10.67;10.07;;;9.40;99.90;;;;;;5022004;28;20492;-49
2024/03/27 04:30:47;;;;;;;10.80;10.20;;;9.50;99.90;;;;;;5022409;28;20248;-48
2024/03/27 04:33:13;;;;;;;11.03;10.33;;;9.50;99.90;;;;;;5022222;28;20187;-49
2024/03/27 04:35:38;;;;;;;10.33;9.73;;;9.50;99.90;;;;;;5022372;28;20269;-51
2024/03/27 04:38:04;;;;;;;10.60;10.00;;;9.50;99.90;;;;;;5021365;28;20590;-51
2024/03/27 04:40:31;;;;;;;10.80;10.20;;;9.60;99.90;;;;;;5021276;28;20214;-53
2024/03/27 04:42:57;;;;;;;10.27;9.77;;;9.60;99.90;;;;;;5021460;28;20437;-48
2024/03/27 04:45:22;;;;;;;10.20;9.60;;;9.50;99.90;;;;;;5019708;28;20522;-49
2024/03/27 04:47:48;;;;;;;10.83;10.23;;;9.50;99.90;;;;;;5021539;28;20895;-50
2024/03/27 04:50:14;;;;;;;10.07;9.50;;;9.50;99.90;;;;;;5020959;28;20478;-50
2024/03/27 04:52:39;;;;;;;10.67;10.07;;;9.50;99.90;;;;;;5020415;28;20656;-40
2024/03/27 04:55:05;;;;;;;10.40;9.73;;;9.50;99.90;;;;;;5020824;28;20312;-39
2024/03/27 04:57:31;;;;;;;10.37;9.83;;;9.60;99.90;;;;;;5022137;28;20194;-43
2024/03/27 04:59:58;;;;;;;10.90;10.30;;;9.60;99.90;;;;;;5021615;28;20469;-40
2024/03/27 05:02:24;;;;;;;11.03;10.43;;;9.50;99.90;;;;;;5021792;28;21577;-40
2024/03/27 05:04:49;;;;;;;10.40;9.90;;;9.60;99.90;;;;;;5020843;28;20437;-41
2024/03/27 05:07:16;;;;;;;10.43;9.83;;;9.60;99.90;;;;;;5022629;28;20425;-39
2024/03/27 05:09:41;;;;;;;10.80;10.20;;;9.60;99.90;;;;;;5022781;28;20257;-43
2024/03/27 05:12:07;;;;;;;10.87;10.27;;;9.70;99.90;;;;;;5022832;28;20478;-43
2024/03/27 05:14:33;;;;;;;9.90;9.40;;;9.60;99.90;;;;;;5022279;28;20193;-39
2024/03/27 05:16:59;;;;;;;10.40;9.80;;;9.60;99.90;;;;;;5021218;28;20282;-40
2024/03/27 05:19:25;;;;;;;10.30;9.80;;;9.70;99.90;;;;;;5022768;28;20210;-41
2024/03/27 05:21:52;;;;;;;10.33;9.80;;;9.70;99.90;;;;;;5023072;28;20412;-39
2024/03/27 05:24:17;;;;;;;10.50;9.90;;;9.80;99.90;;;;;;5022092;28;20618;-43
2024/03/27 05:26:45;;;;;;;9.53;9.03;;;9.90;99.90;;;;;;5022375;28;20409;-44
2024/03/27 05:29:11;;;;;;;9.93;9.40;;;9.90;99.90;;;;;;5020995;28;20887;-45
2024/03/27 05:31:50;;;;;;;10.30;9.80;;;9.90;99.90;;;;;;5020585;28;20437;-41
2024/03/27 05:34:16;;;;;;;10.27;9.57;;;10.00;99.90;;;;;;5021989;28;20186;-42
2024/03/27 05:36:42;;;;;;;10.70;10.00;;;10.00;99.90;;;;;;5019897;28;20431;-45
2024/03/27 05:39:11;;;;;;;10.13;9.57;;;10.00;99.90;;;;;;5021474;28;20468;-47
2024/03/27 05:41:37;;;;;;;10.10;9.40;;;10.10;99.90;;;;;;5021502;28;20415;-39
2024/03/27 05:44:04;;;;;;;10.23;9.63;;;10.10;99.90;;;;;;5023203;28;20479;-41
2024/03/27 05:46:31;;;;;;;9.87;9.10;;;10.00;99.90;;;;;;5022803;28;21323;-42
2024/03/27 05:48:57;;;;;;;10.03;9.50;;;10.20;99.90;;;;;;5022563;28;20419;-44
2024/03/27 05:51:24;;;;;;;10.03;9.37;;;10.20;99.90;;;;;;5022127;28;21192;-44
2024/03/27 05:53:50;;;;;;;10.83;10.03;;;10.20;99.90;;;;;;5021303;28;20931;-39
2024/03/27 05:56:16;;;;;;;9.50;9.00;;;10.30;99.90;;;;;;5021317;28;21175;-43
2024/03/27 05:58:41;;;;;;;10.10;9.60;;;10.30;99.90;;;;;;5020776;28;20452;-41
2024/03/27 06:01:07;;;;;;;10.33;9.73;;;10.40;99.90;;;;;;5020617;28;20186;-46
2024/03/27 06:03:33;;;;;;;10.07;9.47;;;10.40;99.90;;;;;;5020691;28;20201;-42
2024/03/27 06:06:00;;;;;;;9.97;9.37;;;10.50;99.90;;;;;;5020836;28;20312;-41
2024/03/27 06:08:26;;;;;;;9.90;9.20;;;10.50;99.90;;;;;;5020962;28;20478;-42
2024/03/27 06:10:51;;;;;;;10.67;9.90;;;10.60;99.90;;;;;;5020265;28;20437;-42
2024/03/27 06:13:17;;;;;;;10.07;9.37;;;10.70;99.90;;;;;;5020851;28;21325;-41
2024/03/27 06:15:43;;;;;;;10.80;10.13;;;10.60;99.90;;;;;;5020443;28;20175;-42
2024/03/27 06:18:09;;;;;;;9.83;9.23;;;10.70;99.90;;;;;;5020753;28;20484;-40
2024/03/27 06:20:34;;;;;;;9.17;8.67;;;10.80;99.90;;;;;;5020753;28;20561;-46
2024/03/27 06:23:00;;;;;;;10.50;9.80;;;10.90;99.90;;;;;;5020664;28;20171;-40
2024/03/27 06:25:27;;;;;;;9.40;8.90;;;10.80;99.90;;;;;;5020709;28;20178;-40
2024/03/27 06:27:52;;;;;;;9.80;9.20;;;10.90;99.90;;;;;;5021890;28;20205;-44
2024/03/27 06:30:18;;;;;;;9.63;8.70;;;10.80;99.90;;;;;;5022434;28;20416;-40
2024/03/27 06:32:44;;;;;;;9.63;9.13;;;10.90;99.90;;;;;;5020761;28;20198;-43
2024/03/27 06:35:10;;;;;;;9.93;9.33;;;11.00;99.90;;;;;;5021807;28;20225;-48
2024/03/27 06:37:36;;;;;;;9.33;8.83;;;11.00;99.90;;;;;;5022227;28;20938;-46
2024/03/27 06:40:02;;;;;;;10.13;9.53;;;11.10;99.90;;;;;;5021330;28;20229;-52
2024/03/27 06:42:27;;;;;;;10.00;9.30;;;11.20;99.90;;;;;;5021506;28;20480;-47
2024/03/27 06:44:54;;;;;;;10.10;9.37;;;11.30;99.90;;;;;;5021868;28;20212;-41
2024/03/27 06:47:26;;;;;;;10.50;9.80;;;11.30;99.90;;;;;;5020217;28;20187;-42
2024/03/27 06:49:52;;;;;;;10.33;9.73;;;11.30;99.90;;;;;;5021398;28;20413;-44
2024/03/27 06:52:19;;;;;;;10.23;9.53;;;11.40;99.90;;;;;;5021554;28;20471;-41
2024/03/27 06:54:48;;;;;;;10.17;9.67;;;11.50;99.90;;;;;;5021759;28;20793;-48
2024/03/27 06:57:16;;;;;;;10.00;9.40;;;11.60;99.90;;;;;;5021476;28;20422;-51
2024/03/27 06:59:42;;;;;;;10.50;9.90;;;11.70;99.90;;;;;;5021900;28;20463;-48
2024/03/27 07:02:07;;;;;;;9.80;9.30;;;11.80;99.90;;;;;;5020559;28;20841;-38
2024/03/27 07:04:33;;;;;;;10.43;9.83;;;11.90;99.90;;;;;;5021401;28;20236;-40
2024/03/27 07:06:59;;;;;;;10.37;9.70;;;12.00;99.90;;;;;;5021167;28;20642;-40
2024/03/27 07:09:25;;;;;;;9.87;9.47;;;12.10;99.90;;;;;;5021470;28;20322;-43
2024/03/27 07:11:51;;;;;;;9.77;9.10;;;12.10;99.90;;;;;;5021286;28;20190;-48
2024/03/27 07:14:17;;;;;;;10.07;9.57;;;12.30;99.90;;;;;;5021187;28;20432;-51
2024/03/27 07:16:43;;;;;;;10.37;9.83;;;12.30;99.90;;;;;;5021047;28;20785;-53
2024/03/27 07:19:12;;;;;;;10.77;10.17;;;12.40;99.90;;;;;;5020972;28;20491;-46
2024/03/27 07:21:38;;;;;;;10.33;9.83;;;12.50;99.90;;;;;;5021132;28;20552;-44
2024/03/27 07:24:04;;;;;;;10.70;10.10;;;12.60;99.90;;;;;;5021625;28;20430;-44
2024/03/27 07:26:31;;;;;;;9.40;8.90;;;12.70;99.90;;;;;;5019915;28;20185;-41
2024/03/27 07:28:57;;;;;;;9.80;9.30;;;12.90;99.90;;;;;;5019314;28;21309;-39
2024/03/27 07:31:23;;;;;;;10.50;9.90;;;12.90;99.90;;;;;;5019719;28;20507;-42
2024/03/27 07:33:49;;;;;;;10.10;9.60;;;13.00;99.90;;;;;;5019596;28;21467;-45
2024/03/27 07:36:14;;;;;;;10.70;10.10;;;13.10;99.90;;;;;;5019063;28;20191;-43
2024/03/27 07:38:40;;;;;;;10.37;9.77;;;13.10;99.90;;;;;;5019997;28;20186;-40
2024/03/27 07:41:06;;;;;;;10.70;10.07;;;13.20;99.90;;;;;;5019449;28;20252;-45
2024/03/27 07:43:31;;;;;;;11.00;10.10;;;13.20;99.90;;;;;;5019835;28;20186;-41
2024/03/27 07:46:02;;;;;;;10.57;10.00;;;13.20;99.90;;;;;;5019601;28;20818;-42
2024/03/27 07:48:28;;;;;;;10.43;9.50;;;13.30;99.90;;;;;;5018114;28;20179;-40
2024/03/27 07:50:53;;;;;;;11.10;10.30;;;13.40;99.90;;;;;;5018587;28;20860;-42
2024/03/27 07:53:19;;;;;;;10.07;9.50;;;13.50;99.90;;;;;;5019852;28;20248;-43
2024/03/27 07:55:44;;;;;;;10.43;9.90;;;13.50;99.90;;;;;;5019343;28;20186;-42
2024/03/27 07:58:10;;;;;;;10.03;9.43;;;13.40;99.90;;;;;;5019126;28;20224;-46
2024/03/27 08:00:37;;;;;;;10.73;9.97;;;13.50;99.90;;;;;;5019336;28;20567;-41
2024/03/27 08:03:03;;;;;;;10.90;10.30;;;13.40;99.90;;;;;;5019543;28;20577;-40
2024/03/27 08:05:29;;;;;;;10.93;10.23;;;13.40;99.90;;;;;;5019034;28;20417;-40
2024/03/27 08:07:54;;;;;;;10.50;10.00;;;13.40;99.90;;;;;;5019119;28;20421;-42
2024/03/27 08:10:20;;;;;;;10.07;9.57;;;13.50;99.90;;;;;;5019430;28;20202;-45
2024/03/27 08:12:46;;;;;;;9.50;9.07;;;13.50;99.90;;;;;;5018904;28;20182;-41
2024/03/27 08:15:13;;;;;;;10.40;9.80;;;13.60;99.90;;;;;;5019042;28;20182;-43
2024/03/27 08:17:38;;;;;;;9.90;9.40;;;13.70;99.90;;;;;;5018733;28;20469;-42
2024/03/27 08:20:05;;;;;;;10.00;9.50;;;13.80;99.90;;;;;;5018055;28;20530;-44
2024/03/27 08:22:31;;;;;;;10.70;10.00;;;14.10;99.90;;;;;;5017508;28;20189;-42
2024/03/27 08:24:57;;;;;;;10.80;10.10;;;14.30;99.90;;;;;;5019121;28;20433;-39
2024/03/27 08:27:22;;;;;;;10.60;10.00;;;14.40;99.90;;;;;;5017370;28;20591;-42
2024/03/27 08:29:48;;;;;;;10.67;10.00;;;14.50;99.90;;;;;;5018427;28;20191;-45
2024/03/27 08:32:13;;;;;;;9.93;9.43;;;14.30;99.90;;;;;;5016889;28;20189;-45
2024/03/27 08:34:39;;;;;;;10.03;9.53;;;14.50;99.90;;;;;;5018456;28;20186;-48
2024/03/27 08:37:05;;;;;;;10.50;9.90;;;14.70;99.90;;;;;;5017762;28;20225;-47
2024/03/27 08:39:31;;;;;;;10.63;10.03;;;14.80;99.90;;;;;;5021761;28;20906;-48
2024/03/27 08:41:56;;;;;;;11.17;10.47;;;15.10;99.90;;;;;;5022584;28;20182;-49
2024/03/27 08:44:22;;;;;;;9.80;9.30;;;15.30;99.90;;;;;;5022521;28;20265;-48
2024/03/27 08:46:48;;;;;;;10.50;9.90;;;15.30;99.90;;;;;;5022325;28;20186;-49
2024/03/27 08:49:15;;;;;;;10.37;9.77;;;15.50;99.90;;;;;;5022313;28;20284;-45
2024/03/27 08:51:42;;;;;;;10.70;10.00;;;15.50;99.90;;;;;;5020943;28;20433;-50
2024/03/27 08:54:09;;;;;;;10.77;10.17;;;15.50;99.90;;;;;;5021170;28;20476;-52
2024/03/27 08:56:35;;;;;;;9.87;9.07;;;15.40;99.90;;;;;;5021963;28;20425;-52
2024/03/27 08:59:01;;;;;;;10.33;9.77;;;15.50;99.90;;;;;;5021605;28;20781;-51
2024/03/27 09:01:27;;;;;;;10.67;10.10;;;15.50;99.90;;;;;;5022916;28;20417;-47
2024/03/27 09:03:53;;;;;;;10.33;9.77;;;15.30;99.90;;;;;;5021933;28;20421;-49
2024/03/27 09:06:20;;;;;;;10.93;10.23;;;15.10;99.90;;;;;;5022196;28;20923;-39
2024/03/27 09:08:46;;;;;;;10.20;9.67;;;15.30;99.90;;;;;;5021551;28;20262;-46
2024/03/27 09:11:11;;;;;;;10.03;9.53;;;15.60;99.90;;;;;;5021870;28;20846;-44
2024/03/27 09:13:38;;;;;;;11.17;10.60;;;16.10;99.90;;;;;;5021903;28;20182;-45
2024/03/27 09:16:04;;;;;;;11.00;10.40;;;16.10;99.90;;;;;;5021892;28;20582;-40
2024/03/27 09:18:30;;;;;;;10.90;10.27;;;16.10;99.90;;;;;;5020349;28;20561;-43
2024/03/27 09:21:03;;;;;;;10.20;9.60;;;16.20;99.90;;;;;;5021935;28;20566;-46
2024/03/27 09:23:29;;;;;;;11.60;11.00;;;16.10;99.90;;;;;;5021920;28;20228;-42
2024/03/27 09:25:56;;;;;;;9.87;9.37;;;16.40;99.90;;;;;;5021806;28;20417;-41
2024/03/27 09:28:23;;;;;;;10.27;9.70;;;16.50;99.90;;;;;;5021976;28;20409;-40
2024/03/27 09:30:49;;;;;;;11.20;10.50;;;16.40;99.90;;;;;;5021261;28;20425;-44
2024/03/27 09:33:14;;;;;;;10.40;9.80;;;16.50;99.90;;;;;;5021595;28;20515;-41
2024/03/27 09:35:43;;;;;;;10.93;10.33;;;16.40;99.90;;;;;;5021317;28;20422;-46
2024/03/27 09:38:10;;;;;;;11.00;10.40;;;16.70;99.90;;;;;;5021893;28;20720;-46
2024/03/27 09:40:40;;;;;;;10.80;10.20;;;17.40;99.90;;;;;;5021218;28;20472;-44
2024/03/27 09:43:06;;;;;;;10.57;9.77;;;18.00;99.90;;;;;;5021209;28;20502;-43
2024/03/27 09:45:34;;;;;;;11.10;10.50;;;18.80;99.90;;;;;;5021282;28;20895;-47
2024/03/27 09:48:01;;;;;;;11.10;10.30;;;19.10;99.90;;;;;;5021366;28;20408;-38
2024/03/27 09:50:30;;;;;;;11.30;10.60;;;19.60;99.90;;;;;;5034927;28;20803;-46
2024/03/27 09:52:58;;;;;;;10.50;9.80;;;20.10;99.90;;;;;;5021195;28;20425;-46
2024/03/27 09:55:24;;;;;;;10.50;10.00;;;20.50;99.90;;;;;;5021249;28;20410;-42
2024/03/27 09:57:51;;;;;;;10.53;9.83;;;21.00;99.90;;;;;;5021122;28;20424;-42
2024/03/27 10:00:17;;;;;;;10.27;9.77;;;20.90;99.90;;;;;;5020614;28;20963;-42
2024/03/27 10:02:43;;;;;;;10.23;9.70;;;21.50;99.90;;;;;;5020207;28;20559;-41
2024/03/27 10:05:11;;;;;;;10.80;10.20;;;21.80;99.90;;;;;;5020203;28;20325;-40
2024/03/27 10:07:37;;;;;;;10.47;9.87;;;21.90;99.90;;;;;;5019992;28;20520;-45
2024/03/27 10:10:04;;;;;;;10.80;9.97;;;22.20;99.90;;;;;;5020982;28;20480;-39
2024/03/27 10:12:29;;;;;;;10.93;10.30;;;21.70;99.90;;;;;;5020929;28;20186;-43
2024/03/27 10:14:56;;;;;;;9.27;8.80;;;20.80;99.90;;;;;;5020824;28;20432;-44
2024/03/27 10:17:22;;;;;;;11.53;10.93;;;20.70;99.90;;;;;;5020548;28;20226;-41
2024/03/27 10:19:47;;;;;;;11.10;10.50;;;20.40;99.90;;;;;;5020460;28;20500;-43
2024/03/27 10:22:13;;;;;;;10.33;9.70;;;20.50;99.90;;;;;;5020527;28;20838;-39
2024/03/27 10:24:38;;;;;;;11.33;10.60;;;20.30;99.90;;;;;;5020760;28;20189;-42
2024/03/27 10:27:04;;;;;;;10.83;10.33;;;20.40;99.90;;;;;;5020182;28;20190;-42
2024/03/27 10:29:30;;;;;;;10.30;9.70;;;20.40;99.90;;;;;;5020451;28;20186;-44
2024/03/27 10:31:57;;;;;;;11.53;10.93;;;20.80;99.90;;;;;;5020396;28;20264;-42
2024/03/27 10:34:22;;;;;;;11.03;10.43;;;21.00;99.90;;;;;;5019813;28;20436;-42
2024/03/27 10:36:50;;;;;;;12.10;11.40;;;21.00;99.90;;;;;;5018527;28;20794;-42
2024/03/27 10:39:17;;;;;;;11.00;10.40;;;21.10;99.90;;;;;;5020224;28;20225;-41
2024/03/27 10:41:43;;;;;;;10.40;9.80;;;21.50;99.90;;;;;;5019988;28;20727;-46
2024/03/27 10:44:11;;;;;;;11.17;10.40;;;21.70;99.90;;;;;;5020512;28;20420;-41
2024/03/27 10:46:39;;;;;;;11.67;10.87;;;22.10;99.90;;;;;;5020209;28;20850;-45
2024/03/27 10:49:07;;;;;;;11.03;10.33;;;22.00;99.90;;;;;;5020451;28;20937;-47
2024/03/27 10:51:33;;;;;;;11.53;10.93;;;22.30;99.90;;;;;;5017563;28;20444;-47
2024/03/27 10:53:59;;;;;;;11.90;11.30;;;22.80;99.90;;;;;;5019455;28;20946;-40
2024/03/27 10:56:25;;;;;;;11.40;10.60;;;22.10;99.90;;;;;;5019889;28;20464;-44
2024/03/27 10:58:52;;;;;;;11.27;10.67;;;22.30;99.90;;;;;;5019758;28;20583;-40
2024/03/27 11:01:20;;;;;;;12.20;11.50;;;22.50;99.90;;;;;;5018707;28;20520;-42
2024/03/27 11:03:50;;;;;;;11.20;10.50;;;22.50;99.90;;;;;;5019521;28;20478;-41
2024/03/27 11:06:17;;;;;;;11.43;10.77;;;23.00;99.90;;;;;;5020044;28;20437;-41
2024/03/27 11:08:44;;;;;;;10.93;10.33;;;23.20;99.90;;;;;;5019987;28;20409;-45
2024/03/27 11:11:11;;;;;;;11.07;10.57;;;23.20;99.90;;;;;;5019565;28;20422;-40
2024/03/27 11:13:37;;;;;;;11.10;10.40;;;23.40;99.90;;;;;;5020070;28;20763;-43
2024/03/27 11:16:13;;;;;;;10.80;10.20;;;23.60;99.90;;;;;;5019557;28;20433;-43
2024/03/27 11:18:43;;;;;;;10.60;10.00;;;23.80;99.90;;;;;;5019385;28;20747;-41
2024/03/27 11:21:11;;;;;;;11.63;11.03;;;23.80;99.90;;;;;;5019448;28;20593;-45
2024/03/27 11:23:37;;;;;;;10.70;10.10;;;23.80;99.90;;;;;;5018359;28;20457;-41
2024/03/27 11:26:04;;;;;;;12.00;11.30;;;23.40;99.90;;;;;;5020199;28;20478;-43
2024/03/27 11:28:31;;;;;;;12.10;11.33;;;22.80;99.90;;;;;;5019625;28;20447;-42
2024/03/27 11:30:58;;;;;;;11.03;10.43;;;22.20;99.90;;;;;;5019463;28;20960;-39
2024/03/27 11:33:24;;;;;;;11.47;10.67;;;22.40;99.90;;;;;;5019691;28;20432;-48
2024/03/27 11:35:53;;;;;;;11.90;11.20;;;22.30;99.90;;;;;;5019269;28;20429;-48
2024/03/27 11:38:21;;;;;;;12.10;11.40;;;22.80;99.90;;;;;;5019349;28;20483;-47
2024/03/27 11:40:50;;;;;;;11.47;10.73;;;23.50;99.90;;;;;;5019411;28;20461;-41
2024/03/27 11:43:15;;;;;;;11.40;10.57;;;23.60;99.90;;;;;;5019994;28;20511;-46
2024/03/27 11:45:43;;;;;;;11.53;10.93;;;23.60;99.90;;;;;;5019473;28;20785;-50
2024/03/27 11:48:08;;;;;;;12.27;11.47;;;23.20;99.90;;;;;;5018961;28;20214;-51
2024/03/27 11:50:34;;;;;;;12.07;11.37;;;23.20;99.90;;;;;;5019343;28;20512;-44
2024/03/27 11:53:00;;;;;;;12.47;11.50;;;22.00;99.90;;;;;;5017884;28;20182;-39
2024/03/27 11:55:25;;;;;;;12.83;11.93;;;20.90;99.90;;;;;;5018661;28;20241;-40
2024/03/27 11:57:51;;;;;;;12.60;11.90;;;21.10;99.90;;;;;;5019361;28;20217;-44
2024/03/27 12:00:18;;;;;;;11.80;11.10;;;20.90;99.90;;;;;;5019076;28;20206;-41
2024/03/27 12:02:44;;;;;;;11.87;11.27;;;20.70;99.90;;;;;;5019028;28;20481;-44
2024/03/27 12:05:10;;;;;;;12.30;11.60;;;20.60;99.90;;;;;;5019348;28;20570;-42
2024/03/27 12:07:36;;;;;;;11.77;11.07;;;20.20;99.90;;;;;;5019131;28;20421;-39
2024/03/27 12:10:09;;;;;;;12.50;11.80;;;20.50;99.90;;;;;;5019137;28;20535;-38
2024/03/27 12:12:35;;;;;;;12.07;11.37;;;20.90;99.90;;;;;;5020657;28;20193;-41
2024/03/27 12:15:02;;;;;;;12.10;11.30;;;20.80;99.90;;;;;;5022942;28;20429;-41
2024/03/27 12:17:38;;;;;;;11.53;10.83;;;20.70;99.90;;;;;;5022848;28;20492;-40
2024/03/27 12:20:04;;;;;;;12.23;11.53;;;21.30;99.90;;;;;;5022956;28;20896;-41
2024/03/27 12:22:32;;;;;;;11.20;10.60;;;21.90;99.90;;;;;;5023059;28;20475;-42
2024/03/27 12:24:57;;;;;;;12.50;11.60;;;22.40;99.90;;;;;;5022189;28;20431;-40
2024/03/27 12:27:29;;;;;;;11.50;10.80;;;22.10;99.90;;;;;;5023091;28;21010;-39
2024/03/27 12:29:55;;;;;;;12.10;11.40;;;21.80;99.90;;;;;;5023318;28;20215;-45